Time;durP1;ratioP1;P1;durP2;ratioP2;P2;SDS_P1;SDS_P2;PMS_P1;PMS_P2;Temp;Humidity;BMP_temperature;BMP_pressure;BME280_temperature;BME280_humidity;BME280_pressure;Samples;Min_cycle;Max_cycle;Signal;HPM_P1;HPM_P2
2022/09/29 00:01:29;;;;;;;10.30;8.40;;;7.70;99.90;;;;;;5074599;28;20127;-73
2022/09/29 00:03:54;;;;;;;9.52;8.63;;;7.60;99.90;;;;;;5074694;28;20460;-72
2022/09/29 00:06:20;;;;;;;8.85;8.05;;;7.70;99.90;;;;;;5074257;28;20044;-72
2022/09/29 00:08:46;;;;;;;8.48;7.78;;;7.60;99.90;;;;;;5074528;28;20494;-72
2022/09/29 00:11:15;;;;;;;7.85;7.15;;;7.60;99.90;;;;;;5073922;28;20157;-72
2022/09/29 00:13:41;;;;;;;9.93;8.27;;;7.60;99.90;;;;;;5073595;28;20016;-72
2022/09/29 00:16:07;;;;;;;9.52;8.55;;;7.60;99.90;;;;;;5073929;28;20054;-72
2022/09/29 00:18:34;;;;;;;8.85;8.02;;;7.50;99.90;;;;;;5073092;28;20056;-72
2022/09/29 00:21:03;;;;;;;10.57;8.43;;;7.60;99.90;;;;;;5073816;28;20512;-73
2022/09/29 00:23:30;;;;;;;9.98;9.00;;;7.50;99.90;;;;;;5073698;28;20403;-74
2022/09/29 00:26:02;;;;;;;12.30;9.23;;;7.50;99.90;;;;;;5073408;28;20013;-72
2022/09/29 00:28:28;;;;;;;13.07;10.57;;;7.50;99.90;;;;;;5073563;28;20503;-72
2022/09/29 00:30:54;;;;;;;11.60;9.10;;;7.50;99.90;;;;;;5073780;28;20036;-72
2022/09/29 00:33:20;;;;;;;9.20;8.32;;;7.50;99.90;;;;;;5073209;28;20024;-72
2022/09/29 00:35:57;;;;;;;9.98;8.98;;;7.40;99.90;;;;;;5073571;28;20029;-72
2022/09/29 00:38:23;;;;;;;10.85;9.48;;;7.40;99.90;;;;;;5073946;28;20025;-72
2022/09/29 00:40:49;;;;;;;12.82;9.05;;;7.70;99.90;;;;;;5072826;28;20036;-73
2022/09/29 00:43:22;;;;;;;10.98;9.77;;;7.40;99.90;;;;;;5073613;28;20107;-72
2022/09/29 00:45:51;;;;;;;10.60;9.48;;;7.40;99.90;;;;;;5073465;28;20020;-72
2022/09/29 00:48:20;;;;;;;10.70;9.70;;;7.40;99.90;;;;;;5073001;28;20020;-72
2022/09/29 00:50:50;;;;;;;10.68;9.52;;;7.40;99.90;;;;;;5073210;28;20111;-73
2022/09/29 00:53:19;;;;;;;10.52;9.48;;;7.30;99.90;;;;;;5073550;28;20025;-72
2022/09/29 00:55:57;;;;;;;9.65;8.80;;;7.30;99.90;;;;;;5072472;28;20480;-72
2022/09/29 00:58:28;;;;;;;10.50;8.93;;;7.30;99.90;;;;;;5073775;28;20056;-72
2022/09/29 01:00:54;;;;;;;10.52;9.50;;;7.30;99.90;;;;;;5072666;28;20033;-73
2022/09/29 01:03:22;;;;;;;10.90;9.82;;;7.30;99.90;;;;;;5073215;28;20098;-72
2022/09/29 01:06:00;;;;;;;9.05;8.25;;;7.30;99.90;;;;;;5073041;28;20081;-72
2022/09/29 01:08:37;;;;;;;11.68;9.38;;;7.30;99.90;;;;;;5071894;28;20099;-72
2022/09/29 01:11:04;;;;;;;9.95;8.93;;;7.30;99.90;;;;;;5073314;28;20024;-72
2022/09/29 01:13:32;;;;;;;9.77;8.80;;;7.30;99.90;;;;;;5072689;28;20069;-73
2022/09/29 01:15:58;;;;;;;9.82;8.82;;;7.30;99.90;;;;;;5072089;28;20436;-72
2022/09/29 01:18:23;;;;;;;10.07;9.25;;;7.20;99.90;;;;;;5072917;28;20123;-73
2022/09/29 01:20:57;;;;;;;10.35;8.65;;;7.20;99.90;;;;;;5072572;28;20044;-71
2022/09/29 01:23:52;;;;;;;11.60;9.98;;;7.20;99.90;;;;;;5072397;28;20024;-72
2022/09/29 01:26:37;;;;;;;8.88;8.02;;;7.20;99.90;;;;;;5062229;28;20031;-73
2022/09/29 01:29:05;;;;;;;10.18;9.00;;;7.20;99.90;;;;;;5072336;28;20024;-72
2022/09/29 01:31:43;;;;;;;9.40;8.55;;;7.10;99.90;;;;;;5072783;28;20056;-73
2022/09/29 01:34:33;;;;;;;9.40;7.75;;;7.10;99.90;;;;;;5073265;28;20028;-72
2022/09/29 01:37:33;;;;;;;8.90;8.05;;;7.10;99.90;;;;;;5072720;28;20082;-72
2022/09/29 01:40:12;;;;;;;10.87;8.53;;;7.10;99.90;;;;;;5062517;28;20564;-73
2022/09/29 01:43:03;;;;;;;9.45;8.55;;;7.10;99.90;;;;;;5072418;28;20298;-73
2022/09/29 01:45:32;;;;;;;9.23;8.43;;;7.00;99.90;;;;;;5072749;28;20021;-73
2022/09/29 01:48:31;;;;;;;9.45;8.65;;;7.00;99.90;;;;;;5072527;28;20017;-72
2022/09/29 01:51:03;;;;;;;9.02;8.13;;;7.00;99.90;;;;;;5067367;28;20029;-73
2022/09/29 01:53:52;;;;;;;9.88;8.98;;;7.00;99.90;;;;;;5072538;28;20020;-73
2022/09/29 01:56:28;;;;;;;16.65;10.73;;;7.00;99.90;;;;;;5072041;28;20069;-73
2022/09/29 01:58:59;;;;;;;12.57;8.63;;;6.90;99.90;;;;;;5072081;28;20025;-73
2022/09/29 02:01:30;;;;;;;10.55;9.02;;;6.90;99.90;;;;;;5072391;28;20078;-74
2022/09/29 02:04:28;;;;;;;12.00;10.38;;;6.90;99.90;;;;;;5072086;28;20025;-72
2022/09/29 02:07:18;;;;;;;9.68;8.88;;;6.90;99.90;;;;;;5064019;28;20025;-72
2022/09/29 02:09:51;;;;;;;11.60;9.52;;;6.90;99.90;;;;;;5071101;28;20404;-72
2022/09/29 02:12:23;;;;;;;13.93;10.77;;;6.90;99.90;;;;;;5071023;28;20029;-72
2022/09/29 02:14:51;;;;;;;11.13;10.07;;;6.90;99.90;;;;;;5072123;28;20058;-72
2022/09/29 02:17:21;;;;;;;11.48;10.48;;;6.90;99.90;;;;;;5072116;28;20025;-72
2022/09/29 02:19:50;;;;;;;13.48;10.25;;;6.90;99.90;;;;;;5071500;28;20036;-72
2022/09/29 02:22:16;;;;;;;11.38;10.23;;;6.90;99.90;;;;;;5072588;28;20036;-72
2022/09/29 02:24:43;;;;;;;11.15;10.05;;;6.90;99.90;;;;;;5076427;28;20031;-72
2022/09/29 02:27:09;;;;;;;11.35;10.27;;;6.90;99.90;;;;;;5075859;28;20388;-72
2022/09/29 02:29:35;;;;;;;12.07;10.88;;;6.80;99.90;;;;;;5076337;28;20079;-72
2022/09/29 02:32:03;;;;;;;10.70;9.70;;;6.80;99.90;;;;;;5074901;28;20499;-72
2022/09/29 02:34:33;;;;;;;13.30;10.75;;;6.80;99.90;;;;;;5075884;28;20016;-72
2022/09/29 02:37:22;;;;;;;12.45;10.70;;;6.80;99.90;;;;;;5076666;28;20092;-72
2022/09/29 02:40:00;;;;;;;15.10;10.52;;;6.80;99.90;;;;;;5063041;28;20064;-73
2022/09/29 02:42:47;;;;;;;12.95;10.88;;;6.80;99.90;;;;;;5075155;28;20070;-73
2022/09/29 02:45:48;;;;;;;13.52;12.02;;;6.80;99.90;;;;;;5076968;28;20025;-72
2022/09/29 02:48:26;;;;;;;13.43;10.52;;;6.80;99.90;;;;;;5015220;28;20022;-73
2022/09/29 02:51:10;;;;;;;13.38;10.57;;;6.70;99.90;;;;;;5062099;28;20070;-72
2022/09/29 02:53:39;;;;;;;16.10;10.75;;;6.80;99.90;;;;;;5071134;28;20158;-72
2022/09/29 02:56:22;;;;;;;12.93;10.27;;;6.80;99.90;;;;;;5071698;28;20020;-72
2022/09/29 02:59:10;;;;;;;14.10;10.40;;;6.70;99.90;;;;;;5059201;28;20021;-73
2022/09/29 03:01:50;;;;;;;11.73;10.57;;;6.70;99.90;;;;;;5070649;28;20028;-72
2022/09/29 03:04:16;;;;;;;14.63;10.35;;;6.70;99.90;;;;;;5071602;28;20042;-72
2022/09/29 03:06:42;;;;;;;15.27;10.20;;;6.70;99.90;;;;;;5071478;28;20149;-72
2022/09/29 03:09:07;;;;;;;11.63;10.40;;;6.70;99.90;;;;;;5070753;28;20046;-72
2022/09/29 03:11:33;;;;;;;17.67;10.27;;;6.70;99.90;;;;;;5071274;28;20391;-72
2022/09/29 03:13:59;;;;;;;12.88;9.98;;;6.70;99.90;;;;;;5071442;28;20061;-72
2022/09/29 03:16:24;;;;;;;14.60;10.73;;;6.70;99.90;;;;;;5070342;28;20021;-73
2022/09/29 03:18:50;;;;;;;15.50;10.35;;;6.70;99.90;;;;;;5071553;28;20024;-72
2022/09/29 03:21:15;;;;;;;12.05;10.27;;;6.70;99.90;;;;;;5070383;28;20535;-71
2022/09/29 03:23:41;;;;;;;12.48;9.18;;;6.70;99.90;;;;;;5071422;28;20358;-71
2022/09/29 03:26:06;;;;;;;12.15;9.55;;;6.60;99.90;;;;;;5071195;28;20025;-73
2022/09/29 03:28:32;;;;;;;10.80;9.68;;;6.60;99.90;;;;;;5070656;28;20439;-72
2022/09/29 03:31:08;;;;;;;10.15;8.55;;;6.50;99.90;;;;;;5071687;28;20078;-73
2022/09/29 03:33:34;;;;;;;15.40;10.10;;;6.50;99.90;;;;;;5071483;28;20059;-73
2022/09/29 03:36:00;;;;;;;10.95;9.18;;;6.50;99.90;;;;;;5070915;28;20024;-74
2022/09/29 03:38:26;;;;;;;11.43;9.60;;;6.40;99.90;;;;;;5071177;28;20019;-73
2022/09/29 03:40:51;;;;;;;10.38;9.35;;;6.40;99.90;;;;;;5072022;28;20102;-73
2022/09/29 03:43:17;;;;;;;10.35;9.27;;;6.40;99.90;;;;;;5071034;28;20427;-73
2022/09/29 03:45:53;;;;;;;14.60;10.15;;;6.40;99.90;;;;;;5073093;28;20027;-73
2022/09/29 03:48:19;;;;;;;16.60;10.25;;;6.40;99.90;;;;;;5074270;28;20024;-73
2022/09/29 03:50:46;;;;;;;11.55;10.45;;;6.40;99.90;;;;;;5065523;28;20414;-73
2022/09/29 03:53:12;;;;;;;13.75;10.98;;;6.30;99.90;;;;;;5054464;28;20068;-73
2022/09/29 03:55:39;;;;;;;16.67;11.10;;;6.30;99.90;;;;;;5054366;28;20090;-73
2022/09/29 03:58:05;;;;;;;12.60;10.50;;;6.30;99.90;;;;;;5053883;28;20021;-73
2022/09/29 04:00:30;;;;;;;16.00;10.80;;;6.40;99.90;;;;;;5070962;28;20081;-73
2022/09/29 04:02:56;;;;;;;17.05;11.05;;;6.30;99.90;;;;;;5074375;28;20036;-73
2022/09/29 04:05:22;;;;;;;13.35;11.25;;;6.30;99.90;;;;;;5074453;28;20460;-73
2022/09/29 04:07:48;;;;;;;13.05;11.20;;;6.30;99.90;;;;;;5074279;28;20031;-73
2022/09/29 04:10:14;;;;;;;16.50;11.25;;;6.30;99.90;;;;;;5074251;28;20033;-72
2022/09/29 04:12:39;;;;;;;16.65;11.45;;;6.30;99.90;;;;;;5073136;28;20017;-71
2022/09/29 04:15:06;;;;;;;14.27;12.02;;;6.30;99.90;;;;;;5074411;28;20106;-72
2022/09/29 04:17:31;;;;;;;12.60;10.80;;;6.20;99.90;;;;;;5073248;28;20017;-72
2022/09/29 04:19:57;;;;;;;12.93;11.00;;;6.20;99.90;;;;;;5074112;28;20031;-73
2022/09/29 04:22:22;;;;;;;13.82;11.52;;;6.20;99.90;;;;;;5073796;28;20064;-74
2022/09/29 04:24:48;;;;;;;15.98;11.38;;;6.20;99.90;;;;;;5073438;28;20028;-73
2022/09/29 04:27:15;;;;;;;17.25;11.85;;;6.20;99.90;;;;;;5074199;28;20427;-73
2022/09/29 04:29:40;;;;;;;15.77;11.30;;;6.10;99.90;;;;;;5073528;28;20548;-73
2022/09/29 04:32:07;;;;;;;14.30;12.80;;;6.10;99.90;;;;;;5073302;28;20111;-73
2022/09/29 04:34:33;;;;;;;11.70;10.63;;;6.10;99.90;;;;;;5073345;28;20539;-73
2022/09/29 04:36:58;;;;;;;14.98;11.57;;;6.10;99.90;;;;;;5074315;28;20029;-71
2022/09/29 04:39:24;;;;;;;15.98;11.88;;;6.10;99.90;;;;;;5072924;28;20024;-72
2022/09/29 04:41:50;;;;;;;13.18;11.82;;;6.10;99.90;;;;;;5074130;28;20123;-71
2022/09/29 04:44:15;;;;;;;13.18;10.82;;;6.10;99.90;;;;;;5073712;28;20021;-71
2022/09/29 04:46:41;;;;;;;15.48;12.20;;;6.10;99.90;;;;;;5072603;28;20029;-72
2022/09/29 04:49:07;;;;;;;13.98;11.38;;;6.00;99.90;;;;;;5073599;28;20024;-72
2022/09/29 04:51:33;;;;;;;17.88;12.50;;;6.10;99.90;;;;;;5073124;28;20569;-72
2022/09/29 04:53:59;;;;;;;12.35;10.98;;;6.10;99.90;;;;;;5072886;28;20402;-71
2022/09/29 04:56:30;;;;;;;16.85;11.43;;;6.00;99.90;;;;;;5072912;28;20024;-72
2022/09/29 04:58:56;;;;;;;13.07;11.77;;;6.10;99.90;;;;;;5073303;28;20465;-72
2022/09/29 05:01:21;;;;;;;15.10;13.40;;;6.00;99.90;;;;;;5072526;28;20569;-72
2022/09/29 05:03:47;;;;;;;14.45;11.55;;;6.00;99.90;;;;;;5073053;28;20052;-72
2022/09/29 05:06:12;;;;;;;15.48;13.10;;;6.00;99.90;;;;;;5073201;28;20345;-72
2022/09/29 05:08:38;;;;;;;21.92;13.73;;;6.00;99.90;;;;;;5072373;28;20027;-73
2022/09/29 05:11:06;;;;;;;18.63;12.65;;;6.00;99.90;;;;;;5073227;28;20383;-72
2022/09/29 05:13:32;;;;;;;15.43;12.82;;;5.90;99.90;;;;;;5072860;28;20039;-72
2022/09/29 05:15:57;;;;;;;18.35;12.48;;;5.90;99.90;;;;;;5072208;28;20039;-72
2022/09/29 05:18:24;;;;;;;20.55;13.55;;;6.00;99.90;;;;;;5072837;28;20419;-73
2022/09/29 05:20:49;;;;;;;18.38;13.25;;;6.00;99.90;;;;;;5071947;28;20048;-72
2022/09/29 05:23:15;;;;;;;14.10;12.60;;;5.90;99.90;;;;;;5072736;28;20040;-73
2022/09/29 05:25:42;;;;;;;18.00;13.93;;;5.90;99.90;;;;;;5072419;28;20058;-73
2022/09/29 05:28:09;;;;;;;16.33;13.40;;;5.90;99.90;;;;;;5071902;28;20435;-74
2022/09/29 05:30:35;;;;;;;18.65;13.35;;;5.90;99.90;;;;;;5072073;28;20491;-74
2022/09/29 05:33:01;;;;;;;18.15;13.90;;;6.00;99.90;;;;;;5072227;28;20456;-73
2022/09/29 05:35:26;;;;;;;18.40;13.23;;;5.90;99.90;;;;;;5071830;28;20111;-73
2022/09/29 05:37:52;;;;;;;16.85;14.38;;;6.00;99.90;;;;;;5072392;28;20477;-73
2022/09/29 05:40:18;;;;;;;21.10;17.20;;;5.90;99.90;;;;;;5070801;28;20043;-73
2022/09/29 05:42:44;;;;;;;20.05;16.38;;;5.90;99.90;;;;;;5053304;28;20036;-73
2022/09/29 05:45:10;;;;;;;16.38;14.63;;;5.90;99.90;;;;;;5056503;28;20478;-73
2022/09/29 05:47:40;;;;;;;21.35;15.88;;;5.90;99.90;;;;;;5060194;28;20036;-74
2022/09/29 05:50:06;;;;;;;19.60;15.55;;;5.90;99.90;;;;;;5064215;28;20046;-73
2022/09/29 05:52:31;;;;;;;17.58;13.93;;;5.90;99.90;;;;;;5052150;28;20104;-73
2022/09/29 05:54:57;;;;;;;19.95;15.25;;;5.90;99.90;;;;;;5052262;28;20025;-72
2022/09/29 05:57:22;;;;;;;17.92;14.88;;;5.90;99.90;;;;;;5058388;28;20491;-73
2022/09/29 05:59:48;;;;;;;18.50;14.65;;;5.90;99.90;;;;;;5063252;28;20029;-72
2022/09/29 06:02:14;;;;;;;20.45;16.02;;;5.90;99.90;;;;;;5068269;28;20477;-72
2022/09/29 06:04:40;;;;;;;19.95;15.20;;;5.90;99.90;;;;;;5051098;28;20033;-73
2022/09/29 06:07:05;;;;;;;21.95;16.02;;;6.00;99.90;;;;;;5065190;28;20020;-73
2022/09/29 06:09:32;;;;;;;20.70;14.82;;;6.00;99.90;;;;;;5067592;28;20082;-72
2022/09/29 06:11:58;;;;;;;21.23;16.45;;;6.00;99.90;;;;;;5068511;28;20103;-72
2022/09/29 06:14:24;;;;;;;20.40;16.80;;;6.00;99.90;;;;;;5067787;28;20095;-73
2022/09/29 06:16:49;;;;;;;20.67;16.92;;;6.10;99.90;;;;;;5069473;28;20036;-72
2022/09/29 06:19:15;;;;;;;22.05;15.70;;;6.10;99.90;;;;;;5062703;28;20528;-73
2022/09/29 06:21:41;;;;;;;19.38;14.77;;;6.10;99.90;;;;;;5067224;28;20048;-72
2022/09/29 06:24:06;;;;;;;17.85;15.43;;;6.10;99.90;;;;;;5069175;28;20058;-72
2022/09/29 06:26:32;;;;;;;22.88;17.85;;;6.20;99.90;;;;;;5073708;28;20021;-73
2022/09/29 06:28:58;;;;;;;21.55;15.77;;;6.20;99.90;;;;;;5068096;28;20016;-73
2022/09/29 06:31:26;;;;;;;20.30;16.17;;;6.30;99.90;;;;;;5064817;28;20036;-74
2022/09/29 06:33:55;;;;;;;22.70;16.05;;;6.30;99.90;;;;;;5068545;28;20513;-74
2022/09/29 06:39:11;;;;;;;25.17;15.93;;;6.40;99.90;;;;;;5068607;28;20427;-73
2022/09/29 06:41:37;;;;;;;21.42;17.02;;;6.50;99.90;;;;;;5068314;28;20148;-73
2022/09/29 06:44:03;;;;;;;20.17;17.33;;;6.50;99.90;;;;;;5062541;28;20516;-72
2022/09/29 06:46:29;;;;;;;22.85;17.13;;;6.60;99.90;;;;;;5067491;28;20146;-72
2022/09/29 06:48:55;;;;;;;22.75;17.17;;;6.70;99.90;;;;;;5064578;28;20939;-74
2022/09/29 06:51:22;;;;;;;21.92;16.38;;;6.70;99.90;;;;;;5058912;28;20426;-73
2022/09/29 06:53:48;;;;;;;22.00;18.23;;;6.80;99.90;;;;;;5068369;28;20028;-74
2022/09/29 06:56:14;;;;;;;24.42;17.25;;;6.80;99.90;;;;;;5068119;28;20023;-74
2022/09/29 06:58:40;;;;;;;22.75;17.58;;;6.90;99.90;;;;;;5068074;28;20029;-74
2022/09/29 07:01:06;;;;;;;24.85;17.80;;;6.90;99.90;;;;;;5068637;28;20037;-74
2022/09/29 07:03:32;;;;;;;22.80;17.00;;;7.00;99.90;;;;;;5069453;28;20522;-76
2022/09/29 07:06:02;;;;;;;18.30;15.85;;;7.10;99.90;;;;;;5068288;28;20043;-73
2022/09/29 07:08:28;;;;;;;21.00;16.77;;;7.10;99.90;;;;;;5069230;28;20074;-75
2022/09/29 07:10:54;;;;;;;30.52;17.55;;;7.10;99.90;;;;;;5069692;28;20025;-75
2022/09/29 07:13:21;;;;;;;22.23;16.40;;;7.20;99.90;;;;;;5070868;28;20027;-74
2022/09/29 07:15:46;;;;;;;17.40;15.30;;;7.20;99.90;;;;;;5068524;28;20028;-75
2022/09/29 07:18:13;;;;;;;22.10;17.85;;;7.30;99.90;;;;;;5068801;28;20033;-74
2022/09/29 07:20:39;;;;;;;23.48;17.15;;;7.30;99.90;;;;;;5069785;28;20063;-75
2022/09/29 07:23:06;;;;;;;25.45;18.75;;;7.40;99.90;;;;;;5060338;28;20533;-74
2022/09/29 07:25:33;;;;;;;25.40;17.08;;;7.40;99.90;;;;;;5062204;28;20036;-74
2022/09/29 07:27:59;;;;;;;23.33;15.57;;;7.40;99.90;;;;;;5057077;28;20025;-75
2022/09/29 07:30:26;;;;;;;19.75;16.98;;;7.50;99.90;;;;;;5054753;28;20419;-75
2022/09/29 07:32:54;;;;;;;19.75;15.93;;;7.50;99.90;;;;;;5055153;28;20036;-76
2022/09/29 07:35:20;;;;;;;20.70;16.00;;;7.60;99.90;;;;;;5063458;28;20041;-74
2022/09/29 07:37:53;;;;;;;21.33;16.58;;;7.60;99.90;;;;;;5071698;28;20114;-74
2022/09/29 07:40:20;;;;;;;22.17;17.20;;;7.70;99.90;;;;;;5065626;28;20387;-74
2022/09/29 07:42:46;;;;;;;17.35;15.40;;;7.70;99.90;;;;;;5073123;28;20040;-76
2022/09/29 07:45:11;;;;;;;23.08;16.95;;;7.80;99.90;;;;;;5055730;28;20437;-74
2022/09/29 07:47:37;;;;;;;18.63;16.63;;;7.90;99.90;;;;;;5055004;28;20024;-75
2022/09/29 07:50:03;;;;;;;21.17;17.38;;;7.90;99.90;;;;;;5054400;28;20021;-73
2022/09/29 07:52:29;;;;;;;23.83;16.52;;;8.00;99.90;;;;;;5065585;28;20071;-74
2022/09/29 07:54:54;;;;;;;24.42;17.92;;;8.00;99.90;;;;;;5057865;28;20052;-77
2022/09/29 07:57:20;;;;;;;21.55;17.33;;;8.10;99.90;;;;;;5054867;28;20056;-76
2022/09/29 07:59:45;;;;;;;19.92;17.70;;;8.10;99.90;;;;;;5066700;28;20017;-75
2022/09/29 08:02:11;;;;;;;22.83;17.48;;;8.20;99.90;;;;;;5075272;28;20067;-75
2022/09/29 08:04:37;;;;;;;22.10;17.45;;;8.30;99.90;;;;;;5074189;28;20036;-76
2022/09/29 08:07:02;;;;;;;18.13;16.23;;;8.30;99.90;;;;;;5074105;28;20033;-75
2022/09/29 08:09:28;;;;;;;24.05;18.60;;;8.40;99.90;;;;;;5068128;28;20101;-74
2022/09/29 08:11:54;;;;;;;20.25;17.88;;;8.40;99.90;;;;;;5058289;28;20033;-74
2022/09/29 08:14:19;;;;;;;20.42;17.42;;;8.50;99.90;;;;;;5063872;28;20035;-76
2022/09/29 08:16:45;;;;;;;23.00;18.50;;;8.50;99.90;;;;;;5070079;28;20036;-75
2022/09/29 08:19:10;;;;;;;20.48;16.30;;;8.60;99.90;;;;;;5069770;28;20586;-76
2022/09/29 08:21:37;;;;;;;21.80;17.02;;;8.60;99.90;;;;;;5070829;28;20114;-74
2022/09/29 08:24:04;;;;;;;20.45;17.50;;;8.70;99.90;;;;;;5065076;28;20024;-76
2022/09/29 08:26:34;;;;;;;18.20;16.30;;;8.70;99.90;;;;;;5075196;28;20027;-76
2022/09/29 08:29:03;;;;;;;23.27;17.40;;;8.80;99.90;;;;;;5074641;28;20033;-76
2022/09/29 08:31:29;;;;;;;20.95;17.88;;;8.90;99.90;;;;;;5068049;28;20034;-75
2022/09/29 08:33:57;;;;;;;21.17;18.88;;;8.90;99.90;;;;;;5068564;28;20103;-76
2022/09/29 08:36:23;;;;;;;22.48;17.83;;;9.00;99.90;;;;;;5054677;28;20087;-76
2022/09/29 08:38:51;;;;;;;21.55;19.25;;;8.20;99.90;;;;;;5063103;28;20044;-76
2022/09/29 08:41:44;;;;;;;25.02;20.02;;;9.10;99.90;;;;;;5070654;28;20086;-76
2022/09/29 08:44:18;;;;;;;22.73;18.75;;;9.20;99.90;;;;;;5053664;28;20029;-76
2022/09/29 08:46:57;;;;;;;25.02;18.95;;;9.40;99.90;;;;;;5053225;28;20037;-76
2022/09/29 08:49:31;;;;;;;23.35;20.52;;;9.40;99.90;;;;;;5054502;28;20057;-76
2022/09/29 08:52:05;;;;;;;20.88;18.55;;;9.50;99.90;;;;;;5058135;28;20028;-77
2022/09/29 08:54:36;;;;;;;23.50;17.67;;;9.50;99.90;;;;;;5060305;28;20031;-75
2022/09/29 08:57:04;;;;;;;22.55;18.92;;;9.60;99.90;;;;;;5053284;28;20066;-77
2022/09/29 08:59:30;;;;;;;23.50;18.77;;;9.70;99.90;;;;;;5061343;28;20471;-76
2022/09/29 09:02:12;;;;;;;24.77;19.63;;;9.80;99.90;;;;;;5072935;28;20036;-76
2022/09/29 09:04:59;;;;;;;20.27;18.27;;;9.80;99.90;;;;;;5073773;28;20503;-76
2022/09/29 09:07:54;;;;;;;21.67;19.33;;;9.90;99.90;;;;;;5073116;28;20472;-76
2022/09/29 09:10:34;;;;;;;24.13;19.85;;;9.80;99.90;;;;;;5074635;28;20059;-76
2022/09/29 09:13:11;;;;;;;23.00;20.60;;;10.00;99.90;;;;;;5073387;28;20067;-76
2022/09/29 09:15:48;;;;;;;22.17;19.08;;;10.00;99.90;;;;;;5073800;28;20114;-75
2022/09/29 09:18:49;;;;;;;27.92;20.35;;;10.10;99.90;;;;;;5074111;28;20039;-76
2022/09/29 09:21:22;;;;;;;20.00;17.95;;;10.20;99.90;;;;;;5073088;28;20442;-76
2022/09/29 09:23:51;;;;;;;25.63;19.88;;;10.20;99.90;;;;;;5074072;28;20495;-76
2022/09/29 09:26:18;;;;;;;25.85;20.75;;;10.30;99.90;;;;;;5073694;28;20042;-77
2022/09/29 09:28:52;;;;;;;32.20;23.85;;;10.30;99.90;;;;;;5072848;28;20028;-76
2022/09/29 09:31:25;;;;;;;24.85;20.27;;;10.50;99.90;;;;;;5073032;28;20032;-76
2022/09/29 09:34:04;;;;;;;25.15;19.95;;;10.50;99.90;;;;;;5072714;28;20016;-77
2022/09/29 09:37:06;;;;;;;25.15;20.58;;;10.60;99.90;;;;;;5072765;28;20388;-77
2022/09/29 09:39:36;;;;;;;20.83;18.15;;;10.70;99.90;;;;;;5072858;28;20437;-76
2022/09/29 09:42:11;;;;;;;19.23;17.33;;;10.80;99.90;;;;;;5072092;28;20044;-76
2022/09/29 09:44:45;;;;;;;22.55;20.15;;;10.80;99.90;;;;;;5072595;28;20477;-77
2022/09/29 09:47:41;;;;;;;19.23;17.08;;;10.90;99.90;;;;;;5073190;28;20472;-77
2022/09/29 09:50:17;;;;;;;16.95;15.00;;;11.00;99.90;;;;;;5072293;28;20490;-76
2022/09/29 09:53:03;;;;;;;23.33;16.83;;;11.00;99.90;;;;;;5072958;28;20107;-77
2022/09/29 09:55:35;;;;;;;17.27;15.48;;;11.10;99.90;;;;;;5072135;28;20472;-77
2022/09/29 09:58:26;;;;;;;20.08;13.68;;;11.10;99.90;;;;;;5072851;28;20063;-77
2022/09/29 10:01:07;;;;;;;19.65;15.07;;;11.20;99.90;;;;;;5053488;28;20036;-77
2022/09/29 10:03:33;;;;;;;15.07;13.52;;;11.30;99.90;;;;;;5066863;28;20117;-77
2022/09/29 10:05:59;;;;;;;20.48;16.60;;;11.40;99.90;;;;;;5054080;28;20059;-77
2022/09/29 10:08:28;;;;;;;17.90;15.82;;;11.40;99.90;;;;;;5070412;28;20032;-76
2022/09/29 10:10:56;;;;;;;18.67;15.02;;;11.50;99.90;;;;;;5054143;28;20115;-77
2022/09/29 10:13:25;;;;;;;15.88;14.18;;;11.60;99.90;;;;;;5052854;28;20036;-77
2022/09/29 10:16:12;;;;;;;17.77;14.07;;;11.60;99.90;;;;;;5054421;28;20040;-78
2022/09/29 10:18:44;;;;;;;15.90;14.20;;;11.70;99.90;;;;;;5060437;28;20028;-75
2022/09/29 10:21:35;;;;;;;15.65;14.05;;;11.70;99.90;;;;;;5054935;28;20052;-77
2022/09/29 10:24:02;;;;;;;14.52;12.93;;;11.90;99.90;;;;;;5057617;28;20446;-77
2022/09/29 10:26:34;;;;;;;12.27;10.85;;;11.90;99.90;;;;;;5052106;28;20427;-77
2022/09/29 10:29:02;;;;;;;13.27;11.25;;;11.90;99.90;;;;;;5063374;28;20108;-77
2022/09/29 10:31:33;;;;;;;13.40;12.07;;;12.00;99.90;;;;;;5062371;28;20074;-77
2022/09/29 10:34:23;;;;;;;11.63;10.73;;;12.10;99.90;;;;;;5067767;28;20024;-76
2022/09/29 10:36:51;;;;;;;10.63;9.48;;;12.20;99.90;;;;;;5067962;28;20119;-76
2022/09/29 10:39:36;;;;;;;10.27;9.32;;;12.20;99.90;;;;;;5069025;28;20357;-77
2022/09/29 10:42:04;;;;;;;9.52;8.68;;;12.20;99.90;;;;;;5052442;28;20044;-75
2022/09/29 10:44:31;;;;;;;10.70;9.70;;;12.30;99.90;;;;;;5051634;28;20079;-77
2022/09/29 10:46:58;;;;;;;8.82;8.07;;;12.30;99.90;;;;;;5064400;28;20021;-77
2022/09/29 10:49:29;;;;;;;8.02;7.32;;;12.40;99.90;;;;;;5052471;28;20021;-76
2022/09/29 10:51:59;;;;;;;8.20;7.40;;;12.50;99.90;;;;;;5051860;28;20465;-76
2022/09/29 10:54:26;;;;;;;9.40;8.25;;;12.50;99.90;;;;;;5054272;28;20036;-76
2022/09/29 10:56:54;;;;;;;7.95;7.32;;;12.50;99.90;;;;;;5068341;28;20485;-77
2022/09/29 10:59:21;;;;;;;7.65;6.53;;;12.70;99.90;;;;;;5062398;28;20028;-77
2022/09/29 11:01:56;;;;;;;11.32;6.20;;;12.70;99.90;;;;;;5075585;28;20033;-76
2022/09/29 11:04:35;;;;;;;6.85;6.20;;;12.80;99.90;;;;;;5076418;28;20024;-76
2022/09/29 11:07:13;;;;;;;7.22;5.70;;;12.80;99.90;;;;;;5075432;28;20112;-76
2022/09/29 11:09:42;;;;;;;6.65;5.90;;;12.90;99.90;;;;;;5075748;28;20032;-76
2022/09/29 11:12:28;;;;;;;7.20;6.15;;;13.00;99.90;;;;;;5071444;28;20031;-78
2022/09/29 11:14:54;;;;;;;7.80;7.00;;;13.10;99.90;;;;;;5074947;28;20077;-77
2022/09/29 11:17:24;;;;;;;6.10;5.55;;;13.10;99.90;;;;;;5072558;28;20139;-77
2022/09/29 11:19:52;;;;;;;4.97;4.43;;;13.20;99.90;;;;;;5070743;28;20017;-78
2022/09/29 11:22:24;;;;;;;4.00;3.70;;;13.30;99.90;;;;;;5072163;28;20055;-77
2022/09/29 11:25:07;;;;;;;6.93;5.53;;;13.30;99.90;;;;;;5073789;28;20017;-80
2022/09/29 11:27:49;;;;;;;6.97;6.32;;;13.40;99.90;;;;;;5069421;28;20091;-77
2022/09/29 11:30:19;;;;;;;5.95;5.38;;;13.50;99.90;;;;;;5069615;28;20047;-77
2022/09/29 11:33:05;;;;;;;5.53;5.13;;;13.70;99.90;;;;;;5070505;28;20036;-76
2022/09/29 11:35:52;;;;;;;5.00;4.60;;;13.90;99.90;;;;;;5072185;28;20017;-77
2022/09/29 11:38:37;;;;;;;3.90;3.50;;;14.00;99.90;;;;;;5061691;28;20460;-78
2022/09/29 11:41:18;;;;;;;4.88;4.50;;;14.10;99.90;;;;;;5054548;28;20013;-79
2022/09/29 11:43:54;;;;;;;;;;;14.20;99.90;;;;;;5055679;28;20544;-78
2022/09/29 11:46:30;;;;;;;4.75;4.30;;;14.30;99.90;;;;;;5058175;28;20264;-79
2022/09/29 11:49:07;;;;;;;6.38;4.32;;;14.40;99.90;;;;;;5059969;28;20112;-79
2022/09/29 11:51:52;;;;;;;4.88;4.40;;;14.50;99.90;;;;;;5065520;28;20037;-78
2022/09/29 11:54:47;;;;;;;4.93;4.53;;;14.60;99.90;;;;;;5074257;28;20013;-77
2022/09/29 11:57:31;;;;;;;4.72;4.25;;;14.70;99.90;;;;;;5050157;28;20434;-77
2022/09/29 12:00:05;;;;;;;5.00;4.50;;;14.80;99.90;;;;;;5067065;28;20028;-77
2022/09/29 12:03:24;;;;;;;4.35;4.00;;;14.80;99.90;;;;;;5074405;28;20043;-78
2022/09/29 12:06:08;;;;;;;3.83;3.35;;;14.70;99.90;;;;;;4973232;28;20118;-77
2022/09/29 12:08:41;;;;;;;3.88;2.70;;;14.60;99.90;;;;;;5063485;28;20029;-77
2022/09/29 12:11:40;;;;;;;3.60;3.30;;;14.70;99.90;;;;;;5071465;28;20012;-77
2022/09/29 12:14:13;;;;;;;2.67;2.47;;;14.80;99.90;;;;;;5070170;28;20362;-75
2022/09/29 12:16:53;;;;;;;2.33;2.20;;;14.80;99.90;;;;;;5053857;28;20086;-77
2022/09/29 12:19:25;;;;;;;3.30;3.00;;;15.10;99.90;;;;;;5054545;28;20024;-70
2022/09/29 12:21:52;;;;;;;3.80;3.47;;;15.30;99.90;;;;;;5071922;28;20044;-76
2022/09/29 12:24:29;;;;;;;4.50;3.35;;;15.50;99.90;;;;;;5074237;28;20028;-76
2022/09/29 12:26:56;;;;;;;3.85;3.20;;;15.70;99.90;;;;;;5061050;28;20427;-76
2022/09/29 12:29:39;;;;;;;3.72;3.38;;;15.90;99.90;;;;;;5074724;28;20025;-76
2022/09/29 12:32:15;;;;;;;3.53;3.22;;;16.20;99.90;;;;;;5061337;28;20043;-76
2022/09/29 12:34:53;;;;;;;3.08;2.85;;;16.30;99.90;;;;;;5073720;28;20025;-76
2022/09/29 12:37:26;;;;;;;3.20;2.90;;;16.40;99.90;;;;;;5072529;28;20039;-76
2022/09/29 12:39:59;;;;;;;1.85;1.75;;;16.40;99.90;;;;;;5074012;28;20020;-77
2022/09/29 12:42:40;;;;;;;2.17;2.08;;;16.40;99.90;;;;;;5073721;28;20028;-77
2022/09/29 12:45:29;;;;;;;2.58;2.38;;;16.40;99.90;;;;;;5073351;28;20066;-76
2022/09/29 12:48:16;;;;;;;2.20;1.83;;;16.30;99.90;;;;;;5075041;28;20024;-76
2022/09/29 12:50:56;;;;;;;4.07;2.80;;;16.40;99.90;;;;;;5074133;28;20411;-76
2022/09/29 12:53:28;;;;;;;3.78;2.63;;;16.50;99.90;;;;;;5074554;28;20025;-77
2022/09/29 12:55:58;;;;;;;3.40;2.55;;;16.50;99.90;;;;;;5073995;28;20115;-76
2022/09/29 12:58:43;;;;;;;3.03;2.30;;;16.40;99.90;;;;;;5073297;28;20039;-76
2022/09/29 13:01:22;;;;;;;5.70;2.28;;;16.20;99.90;;;;;;5062133;28;20035;-75
2022/09/29 13:03:54;;;;;;;3.05;1.98;;;16.00;99.90;;;;;;5073474;28;20120;-76
2022/09/29 13:06:39;;;;;;;4.25;2.08;;;16.00;99.90;;;;;;5072859;28;20016;-76